Utah County RPA :: MCCAMMON

liberation: 2021-04-03  07:40     latitude: 42.659683     longitude: -112.202217 144 birds
# LOFT PRING MILES ARRIVAL SPEED ToWin
1 Riley Allred AU20-UCA-151 178.13 2021-04-03 11:21:40.152 1414.306 00:00:00
2 Riley Allred AU20-UCA-153 178.13 2021-04-03 11:22:59.799 1405.887 00:01:20
3 Riley Allred AU20-UCA-101 178.13 2021-04-03 11:23:02.477 1405.605 00:01:22
4 Riley Allred AU20-UCA-166 178.13 2021-04-03 11:24:53.374 1394.053 00:03:13
5 Riley Allred AU20-UCA-170 178.13 2021-04-03 11:24:54.583 1393.928 00:03:14
6 Riley Allred AU20-UCA-127 178.13 2021-04-03 11:24:55.487 1393.835 00:03:15
7 Riley Allred AU20-UCA-157 178.13 2021-04-03 11:25:41.782 1389.070 00:04:02
8 Riley Allred AU20-UCA-116 178.13 2021-04-03 11:25:42.134 1389.034 00:04:02
9 Riley Allred AU20-UCA-106 178.13 2021-04-03 11:28:07.916 1374.240 00:06:28
10 Sherwood Loft AU20-E-71180 185.761 2021-04-03 11:39:10.696 1366.927 00:08:01
11 Peery Loft AU19-UCA-0901 182.087 2021-04-03 11:35:16.465 1362.126 00:08:41
12 Sherwood Loft AU20-NEBO-0648 185.761 2021-04-03 11:40:14.997 1360.829 00:09:05
13 Peery Loft AU19-UVI-0187 182.087 2021-04-03 11:37:39.072 1348.503 00:11:03
14 Riley Allred AU20-UCA-144 178.13 2021-04-03 11:33:11.974 1344.377 00:11:32
15 Riley Allred AU20-UCA-119 178.13 2021-04-03 11:33:14.758 1344.109 00:11:35
16 Riley Allred AU20-UCA-107 178.13 2021-04-03 11:33:21.377 1343.474 00:11:41
17 Riley Allred AU20-UCA-136 178.13 2021-04-03 11:33:23.095 1343.309 00:11:43
18 Riley Allred AU19-UCA-940 178.13 2021-04-03 11:33:27.445 1342.892 00:11:47
19 Riley Allred AU20-UCA-139 178.13 2021-04-03 11:34:16.084 1338.245 00:12:36
20 Peery Loft AU19-UCA-0615 182.087 2021-04-03 11:40:27.213 1332.787 00:13:52
21 Sherwood Loft AU20-NEBO-0279 185.761 2021-04-03 11:46:00.387 1328.986 00:14:50
22 Sherwood Loft AU20-NEBO-0643 185.761 2021-04-03 11:48:12.866 1317.164 00:17:03
23 Riley Allred AU20-UCA-147 178.13 2021-04-03 11:38:52.334 1312.451 00:17:12
24 Iron Will AU20-UCA-0213 181.718 2021-04-03 11:44:06.480 1310.175 00:17:58
25 Iron Will AU20-UCA-0222 181.718 2021-04-03 11:44:14.216 1309.483 00:18:06
26 Riley Allred AU20-UCA-132 178.13 2021-04-03 11:40:43.743 1302.327 00:19:04
27 Riley Allred AU20-UCA-156 178.13 2021-04-03 11:41:28.894 1298.269 00:19:49
28 Iron Will AU19-WGS-2597 181.718 2021-04-03 11:46:41.482 1296.455 00:20:33
29 Iron Will AU20-UCA-0266 181.718 2021-04-03 11:46:47.888 1295.894 00:20:40
30 Iron Will AU20-UCA-0246 181.718 2021-04-03 11:47:16.717 1293.376 00:21:09
31 Peery Loft AU20-UCA-0004 182.087 2021-04-03 11:47:52.233 1292.906 00:21:17
32 Peery Loft AU20-UCA-0042 182.087 2021-04-03 11:51:02.644 1276.562 00:24:27
33 Iron Will AU20-UCA-0262 181.718 2021-04-03 11:50:57.139 1274.442 00:24:49
34 Riley Allred AU20-UCA-148 178.13 2021-04-03 11:47:54.723 1264.594 00:26:15
35 Sherwood Loft AU20-NEBO-0285 185.761 2021-04-03 11:59:05.861 1261.837 00:27:56
36 Dry Creek Lofts AU20-NEBO-301 183.792 2021-04-03 11:56:34.035 1260.779 00:27:51
37 Riley Allred AU19-JEDD-34842 178.13 2021-04-03 11:49:42.535 1255.494 00:28:02
38 Iron Will AU20-UCA-0314 181.718 2021-04-03 11:56:13.854 1248.188 00:30:06
39 Sherwood Loft AU13-UCA-0368 185.761 2021-04-03 12:03:10.897 1242.257 00:32:01
40 Iron Will AU20-UCA-0277 181.718 2021-04-03 11:58:58.629 1234.951 00:32:51
41 Peery Loft AU19-UVI-0300 182.087 2021-04-03 12:00:59.208 1227.930 00:34:24
42 Peery Loft AU20-UCA-0041 182.087 2021-04-03 12:01:09.383 1227.132 00:34:34
43 Iron Will AU20-UCA-0260 181.718 2021-04-03 12:01:27.550 1223.228 00:35:19
44 Peery Loft AU19-UCA-0910 182.087 2021-04-03 12:03:50.524 1214.641 00:37:15
45 Riley Allred AU20-UCA-161 178.13 2021-04-03 11:59:42.468 1207.157 00:38:02
46 Peery Loft AU20-UCA-0038 182.087 2021-04-03 12:07:09.108 1199.593 00:40:33
47 Sherwood Loft AU19-AA-30785 185.761 2021-04-03 12:12:52.402 1198.135 00:41:42
48 Iron Will AU20-UCA-0274 181.718 2021-04-03 12:07:17.710 1196.521 00:41:10
49 Sherwood Loft IF20-FOYS-2245 185.761 2021-04-03 12:17:02.279 1180.124 00:45:52
50 Dry Creek Lofts AU20-NEBO-349 183.792 2021-04-03 12:15:00.279 1176.251 00:46:17
51 Peery Loft AU20-UCA-0007 182.087 2021-04-03 12:12:39.045 1175.399 00:46:03
52 Iron Will AU20-UCA-0261 181.718 2021-04-03 12:12:21.531 1174.275 00:46:13
53 Iron Will AU18-AA-4201 181.718 2021-04-03 12:14:40.029 1164.406 00:48:32
54 Sherwood Loft AU18-UCA-0686 185.761 2021-04-03 12:24:40.502 1148.464 00:53:31
55 Sherwood Loft AU20-UCA-0413 185.761 2021-04-03 12:25:33.323 1144.924 00:54:23
56 Iron Will AU20-UCA-0204 181.718 2021-04-03 12:27:33.834 1112.185 01:01:26
57 Sherwood Loft IF20-FOYS-2269 185.761 2021-04-03 12:37:05.755 1100.450 01:05:56
58 Peery Loft AU20-UCA-0067 182.087 2021-04-03 12:48:34.661 1038.550 01:21:59
59 Sherwood Loft AU20-NEBO-0268 185.761 2021-04-03 12:57:33.469 1029.542 01:26:24
60 Peery Loft AU20-UCA-0034 182.087 2021-04-03 12:51:34.967 1028.534 01:24:59
61 Riley Allred AU19-UCA-959 178.13 2021-04-03 12:47:46.656 1018.619 01:26:07
62 Peery Loft AU18-UCA-0522 182.087 2021-04-03 12:57:05.751 1010.652 01:30:30
63 Iron Will AU20-UCA-0201 181.718 2021-04-03 12:59:24.229 1001.316 01:33:16
64 Sherwood Loft AU18-UCA-0634 185.761 2021-04-03 13:07:18.798 998.857 01:36:09
65 Dry Creek Lofts AU20-NEBO-0332 183.792 2021-04-03 13:09:05.714 982.921 01:40:23
66 Martin Lofts AU19-ARPU-75170 183.515 2021-04-03 13:19:54.637 950.211 01:51:32
67 Riley Allred AU20-UCA-102 178.13 2021-04-03 13:18:10.061 927.079 01:56:30
68 Iron Will AU20-UCA-0369 181.718 2021-04-03 13:37:45.646 893.961 02:11:38
69 Sherwood Loft AU19-JEDD-26375 185.761 2021-04-03 13:49:08.476 885.675 02:17:59
70 Riley Allred AU19-JEDD-42112 178.13 2021-04-03 13:46:52.670 854.530 02:25:13
71 Sherwood Loft AU18-UCA-0681 185.761 2021-04-03 14:50:30.222 759.434 03:19:20
72 Dry Creek Lofts AU20-NEBO-327 183.792 2021-04-03 14:46:28.226 758.492 03:17:45
73 Sherwood Loft IF20-FOYS-2275 185.761 2021-04-03 15:01:59.346 739.700 03:30:49
74 Martin Lofts AU19-ARPU-75162 183.515 2021-04-03 15:01:40.477 731.278 03:33:18
75 Sherwood Loft IF20-FOYS-2259 185.761 2021-04-03 15:33:37.787 690.284 04:02:28
76 Dry Creek Lofts AU-20-NEBO-323 183.792 2021-04-03 15:29:01.087 689.685 04:00:18
77 Sherwood Loft AU19-AA-30719 185.761 2021-04-03 15:52:04.580 664.407 04:20:55
78 Sherwood Loft AU20-E-71027 185.761 2021-04-03 16:20:52.484 627.673 04:49:43
79 Dry Creek Lofts AU20-NEBO-340 183.792 2021-04-03 16:47:48.790 590.483 05:19:06
80 Dry Creek Lofts AU20-NEBO-0315 183.792 2021-04-03 16:55:33.209 582.256 05:26:50
81 Martin Lofts AU19-ARPU-75151 183.515 2021-04-03 17:36:35.176 541.392 06:08:13
Craig Allred AU19-JEDD-34811 0 0000-00-00 00:00:00.000 0.000 00:00:00
Craig Allred AU19-JEDD-34815 0 0000-00-00 00:00:00.000 0.000 00:00:00
Craig Allred AU19-JEDD-34849 0 0000-00-00 00:00:00.000 0.000 00:00:00
Craig Allred AU19-MTZ-1321 0 0000-00-00 00:00:00.000 0.000 00:00:00
Craig Allred AU20-HARM-1689 0 0000-00-00 00:00:00.000 0.000 00:00:00
Craig Allred AU20-HARM-1695 0 0000-00-00 00:00:00.000 0.000 00:00:00
Craig Allred AU20-HARM-2617 0 0000-00-00 00:00:00.000 0.000 00:00:00
Craig Allred AU20-NLI-2008 0 0000-00-00 00:00:00.000 0.000 00:00:00
Craig Allred AU20-NLI-2015 0 0000-00-00 00:00:00.000 0.000 00:00:00
Craig Allred AU20-NLI-2121 0 0000-00-00 00:00:00.000 0.000 00:00:00
Craig Allred AU20-NLI-2413 0 0000-00-00 00:00:00.000 0.000 00:00:00
Craig Allred AU20-NLI-2417 0 0000-00-00 00:00:00.000 0.000 00:00:00
Craig Allred AU20-NLI-2419 0 0000-00-00 00:00:00.000 0.000 00:00:00
Craig Allred AU20-NLI-2503 0 0000-00-00 00:00:00.000 0.000 00:00:00
Craig Allred AU20-UVI-303 0 0000-00-00 00:00:00.000 0.000 00:00:00
Craig Allred AU20-UVI-352 0 0000-00-00 00:00:00.000 0.000 00:00:00
Craig Allred AU20-UVI-359 0 0000-00-00 00:00:00.000 0.000 00:00:00
Craig Allred AU20-UVI-361 0 0000-00-00 00:00:00.000 0.000 00:00:00
Craig Allred AU20-UVI-366 0 0000-00-00 00:00:00.000 0.000 00:00:00
Craig Allred IF20-VDB-0055 0 0000-00-00 00:00:00.000 0.000 00:00:00
Craig Allred IF20-VDB-0060 0 0000-00-00 00:00:00.000 0.000 00:00:00
Craig Allred IF20-VDB-25 0 0000-00-00 00:00:00.000 0.000 00:00:00
Craig Allred IF20-VDB-31 0 0000-00-00 00:00:00.000 0.000 00:00:00
Dry Creek Lofts AU20-NEBO-0357 0 0000-00-00 00:00:00.000 0.000 00:00:00
Dry Creek Lofts AU20-NEBO-311 0 0000-00-00 00:00:00.000 0.000 00:00:00
Iron Will AU20-UCA-0245 0 0000-00-00 00:00:00.000 0.000 00:00:00
Iron Will AU20-UCA-0258 0 0000-00-00 00:00:00.000 0.000 00:00:00
Iron Will AU20-UCA-0290 0 0000-00-00 00:00:00.000 0.000 00:00:00
Iron Will AU20-UCA-0325 0 0000-00-00 00:00:00.000 0.000 00:00:00
Iron Will AU20-UCA-0328 0 0000-00-00 00:00:00.000 0.000 00:00:00
Iron Will AU20-UCA-0329 0 0000-00-00 00:00:00.000 0.000 00:00:00
Iron Will AU20-UCA-0333 0 0000-00-00 00:00:00.000 0.000 00:00:00
Iron Will AU20-UCA-0375 0 0000-00-00 00:00:00.000 0.000 00:00:00
Iron Will AU20-UCA-0381 0 0000-00-00 00:00:00.000 0.000 00:00:00
Martin Lofts AU12-FOYS-12968 0 0000-00-00 00:00:00.000 0.000 00:00:00
Martin Lofts AU13-FOYS-18403 0 0000-00-00 00:00:00.000 0.000 00:00:00
Martin Lofts AU15-FOYS-21913 0 0000-00-00 00:00:00.000 0.000 00:00:00
Martin Lofts AU19-ARPU-75157 0 0000-00-00 00:00:00.000 0.000 00:00:00
Martin Lofts AU19-ARPU-75158 0 0000-00-00 00:00:00.000 0.000 00:00:00
Martin Lofts AU19-ARPU-75177 0 0000-00-00 00:00:00.000 0.000 00:00:00
Martin Lofts AU20-UCA-579 0 0000-00-00 00:00:00.000 0.000 00:00:00
Martin Lofts AU20-UCA-581 0 0000-00-00 00:00:00.000 0.000 00:00:00
Martin Lofts AU20-UCA-585 0 0000-00-00 00:00:00.000 0.000 00:00:00
Martin Lofts AU20-UCA-588 0 0000-00-00 00:00:00.000 0.000 00:00:00
Martin Lofts AU20-UCA-594 0 0000-00-00 00:00:00.000 0.000 00:00:00
Martin Lofts AU20-UCA-597 0 0000-00-00 00:00:00.000 0.000 00:00:00
Peery Loft AU20-UCA-0019 0 0000-00-00 00:00:00.000 0.000 00:00:00
Riley Allred AU19-JEDD-34813 0 0000-00-00 00:00:00.000 0.000 00:00:00
Riley Allred AU19-JEDD-34848 0 0000-00-00 00:00:00.000 0.000 00:00:00
Riley Allred AU19-JEDD-42104 0 0000-00-00 00:00:00.000 0.000 00:00:00
Riley Allred AU19-JEDD-42113 0 0000-00-00 00:00:00.000 0.000 00:00:00
Riley Allred AU19-WFA-1368 0 0000-00-00 00:00:00.000 0.000 00:00:00
Sherwood Loft AU19-AA-30753 0 0000-00-00 00:00:00.000 0.000 00:00:00
Sherwood Loft AU19-AA-30771 0 0000-00-00 00:00:00.000 0.000 00:00:00
Sherwood Loft AU19-AA-30783 0 0000-00-00 00:00:00.000 0.000 00:00:00
Sherwood Loft AU20-NEBO-0255 0 0000-00-00 00:00:00.000 0.000 00:00:00
Sherwood Loft AU20-UCA-0415 0 0000-00-00 00:00:00.000 0.000 00:00:00
Sherwood Loft AU20-UCA-0469 0 0000-00-00 00:00:00.000 0.000 00:00:00
Sherwood Loft IF20-FOYS-2238 0 0000-00-00 00:00:00.000 0.000 00:00:00
Sherwood Loft IF20-FOYS-2240 0 0000-00-00 00:00:00.000 0.000 00:00:00
Sherwood Loft IF20-FOYS-2244 0 0000-00-00 00:00:00.000 0.000 00:00:00
Sherwood Loft IF20-FOYS-2270 0 0000-00-00 00:00:00.000 0.000 00:00:00
Sherwood Loft IF20-FOYS-2277 0 0000-00-00 00:00:00.000 0.000 00:00:00